sensor_id;sensor_type;location;lat;lon;timestamp;P1;durP1;ratioP1;P2;durP2;ratioP2
17197;SDS011;8715;51.010;6.812;2023-07-13T00:02:34;951.17;;;874.58;;
17197;SDS011;8715;51.010;6.812;2023-07-13T00:05:19;950.40;;;873.70;;
17197;SDS011;8715;51.010;6.812;2023-07-13T00:08:06;953.53;;;876.78;;
17197;SDS011;8715;51.010;6.812;2023-07-13T00:13:38;950.90;;;874.97;;
17197;SDS011;8715;51.010;6.812;2023-07-13T00:16:23;948.10;;;871.97;;
17197;SDS011;8715;51.010;6.812;2023-07-13T00:19:08;948.60;;;872.55;;
17197;SDS011;8715;51.010;6.812;2023-07-13T00:21:53;948.10;;;872.08;;
17197;SDS011;8715;51.010;6.812;2023-07-13T00:24:40;950.33;;;873.80;;
17197;SDS011;8715;51.010;6.812;2023-07-13T00:27:26;952.20;;;875.92;;
17197;SDS011;8715;51.010;6.812;2023-07-13T00:30:13;950.65;;;873.97;;
17197;SDS011;8715;51.010;6.812;2023-07-13T00:32:58;954.67;;;877.58;;
17197;SDS011;8715;51.010;6.812;2023-07-13T00:35:44;950.65;;;874.13;;
17197;SDS011;8715;51.010;6.812;2023-07-13T00:38:29;950.92;;;874.55;;
17197;SDS011;8715;51.010;6.812;2023-07-13T00:41:16;960.47;;;884.00;;
17197;SDS011;8715;51.010;6.812;2023-07-13T00:44:00;949.55;;;873.22;;
17197;SDS011;8715;51.010;6.812;2023-07-13T00:46:46;957.05;;;881.03;;
17197;SDS011;8715;51.010;6.812;2023-07-13T00:49:32;950.58;;;874.85;;
17197;SDS011;8715;51.010;6.812;2023-07-13T00:52:17;951.40;;;875.10;;
17197;SDS011;8715;51.010;6.812;2023-07-13T00:55:02;946.35;;;870.97;;
17197;SDS011;8715;51.010;6.812;2023-07-13T00:57:49;949.42;;;873.75;;
17197;SDS011;8715;51.010;6.812;2023-07-13T01:00:35;953.10;;;876.97;;
17197;SDS011;8715;51.010;6.812;2023-07-13T01:03:21;949.00;;;873.40;;
17197;SDS011;8715;51.010;6.812;2023-07-13T01:06:07;949.95;;;874.17;;
17197;SDS011;8715;51.010;6.812;2023-07-13T01:08:52;950.63;;;874.40;;
17197;SDS011;8715;51.010;6.812;2023-07-13T01:11:38;958.50;;;882.47;;
17197;SDS011;8715;51.010;6.812;2023-07-13T01:14:24;953.40;;;876.97;;
17197;SDS011;8715;51.010;6.812;2023-07-13T01:17:09;953.47;;;877.10;;
17197;SDS011;8715;51.010;6.812;2023-07-13T01:19:55;951.22;;;874.78;;
17197;SDS011;8715;51.010;6.812;2023-07-13T01:22:42;950.20;;;874.05;;
17197;SDS011;8715;51.010;6.812;2023-07-13T01:25:26;948.65;;;872.80;;
17197;SDS011;8715;51.010;6.812;2023-07-13T01:28:11;948.30;;;872.35;;
17197;SDS011;8715;51.010;6.812;2023-07-13T01:30:57;943.95;;;868.15;;
17197;SDS011;8715;51.010;6.812;2023-07-13T01:33:42;947.08;;;871.45;;
17197;SDS011;8715;51.010;6.812;2023-07-13T01:36:28;953.85;;;876.95;;
17197;SDS011;8715;51.010;6.812;2023-07-13T01:39:14;947.45;;;871.92;;
17197;SDS011;8715;51.010;6.812;2023-07-13T01:42:00;949.50;;;873.40;;
17197;SDS011;8715;51.010;6.812;2023-07-13T01:44:46;948.33;;;872.67;;
17197;SDS011;8715;51.010;6.812;2023-07-13T01:47:30;948.38;;;872.72;;
17197;SDS011;8715;51.010;6.812;2023-07-13T01:50:15;947.65;;;871.90;;
17197;SDS011;8715;51.010;6.812;2023-07-13T01:53:00;955.72;;;881.00;;
17197;SDS011;8715;51.010;6.812;2023-07-13T01:55:47;954.33;;;879.25;;
17197;SDS011;8715;51.010;6.812;2023-07-13T01:58:31;952.50;;;878.25;;
17197;SDS011;8715;51.010;6.812;2023-07-13T02:01:16;949.20;;;873.97;;
17197;SDS011;8715;51.010;6.812;2023-07-13T02:04:01;948.90;;;873.13;;
17197;SDS011;8715;51.010;6.812;2023-07-13T02:06:47;949.22;;;873.50;;
17197;SDS011;8715;51.010;6.812;2023-07-13T02:09:31;944.08;;;869.38;;
17197;SDS011;8715;51.010;6.812;2023-07-13T02:12:18;945.72;;;870.95;;
17197;SDS011;8715;51.010;6.812;2023-07-13T02:15:03;950.13;;;874.85;;
17197;SDS011;8715;51.010;6.812;2023-07-13T02:17:48;948.47;;;873.30;;
17197;SDS011;8715;51.010;6.812;2023-07-13T02:20:33;953.47;;;879.10;;
17197;SDS011;8715;51.010;6.812;2023-07-13T02:23:18;951.08;;;875.42;;
17197;SDS011;8715;51.010;6.812;2023-07-13T02:26:03;948.80;;;874.08;;
17197;SDS011;8715;51.010;6.812;2023-07-13T02:28:50;956.10;;;881.42;;
17197;SDS011;8715;51.010;6.812;2023-07-13T02:31:34;947.13;;;871.20;;
17197;SDS011;8715;51.010;6.812;2023-07-13T02:34:20;946.53;;;872.03;;
17197;SDS011;8715;51.010;6.812;2023-07-13T02:37:05;956.92;;;882.00;;
17197;SDS011;8715;51.010;6.812;2023-07-13T02:39:50;945.38;;;870.63;;
17197;SDS011;8715;51.010;6.812;2023-07-13T02:42:35;945.78;;;871.42;;
17197;SDS011;8715;51.010;6.812;2023-07-13T02:45:21;951.10;;;877.20;;
17197;SDS011;8715;51.010;6.812;2023-07-13T02:48:06;943.30;;;869.33;;
17197;SDS011;8715;51.010;6.812;2023-07-13T02:50:51;941.38;;;867.03;;
17197;SDS011;8715;51.010;6.812;2023-07-13T02:53:36;952.80;;;879.22;;
17197;SDS011;8715;51.010;6.812;2023-07-13T02:56:22;943.65;;;869.42;;
17197;SDS011;8715;51.010;6.812;2023-07-13T02:59:07;944.28;;;870.38;;
17197;SDS011;8715;51.010;6.812;2023-07-13T03:01:54;940.72;;;867.40;;
17197;SDS011;8715;51.010;6.812;2023-07-13T03:04:39;943.28;;;869.83;;
17197;SDS011;8715;51.010;6.812;2023-07-13T03:07:24;943.72;;;869.50;;
17197;SDS011;8715;51.010;6.812;2023-07-13T03:10:10;952.63;;;878.78;;
17197;SDS011;8715;51.010;6.812;2023-07-13T03:12:55;941.55;;;867.95;;
17197;SDS011;8715;51.010;6.812;2023-07-13T03:15:40;941.28;;;868.40;;
17197;SDS011;8715;51.010;6.812;2023-07-13T03:18:26;940.83;;;867.95;;
17197;SDS011;8715;51.010;6.812;2023-07-13T03:21:11;940.60;;;868.05;;
17197;SDS011;8715;51.010;6.812;2023-07-13T03:23:56;942.13;;;868.78;;
17197;SDS011;8715;51.010;6.812;2023-07-13T03:26:41;939.80;;;866.72;;
17197;SDS011;8715;51.010;6.812;2023-07-13T03:29:26;939.85;;;867.10;;
17197;SDS011;8715;51.010;6.812;2023-07-13T03:32:11;938.72;;;866.13;;
17197;SDS011;8715;51.010;6.812;2023-07-13T03:34:58;952.20;;;879.25;;
17197;SDS011;8715;51.010;6.812;2023-07-13T03:37:43;941.78;;;868.38;;
17197;SDS011;8715;51.010;6.812;2023-07-13T03:40:28;941.72;;;868.63;;
17197;SDS011;8715;51.010;6.812;2023-07-13T03:43:13;944.20;;;870.85;;
17197;SDS011;8715;51.010;6.812;2023-07-13T03:45:58;940.00;;;866.80;;
17197;SDS011;8715;51.010;6.812;2023-07-13T03:48:43;936.13;;;863.47;;
17197;SDS011;8715;51.010;6.812;2023-07-13T03:51:30;956.78;;;883.00;;
17197;SDS011;8715;51.010;6.812;2023-07-13T03:54:15;940.40;;;866.88;;
17197;SDS011;8715;51.010;6.812;2023-07-13T03:57:00;948.97;;;873.45;;
17197;SDS011;8715;51.010;6.812;2023-07-13T03:59:45;949.50;;;874.05;;
17197;SDS011;8715;51.010;6.812;2023-07-13T04:02:30;953.72;;;876.83;;
17197;SDS011;8715;51.010;6.812;2023-07-13T04:05:15;956.72;;;878.58;;
17197;SDS011;8715;51.010;6.812;2023-07-13T04:08:02;961.88;;;883.10;;
17197;SDS011;8715;51.010;6.812;2023-07-13T04:10:47;964.90;;;884.63;;
17197;SDS011;8715;51.010;6.812;2023-07-13T04:13:32;967.50;;;886.22;;
17197;SDS011;8715;51.010;6.812;2023-07-13T04:16:17;967.70;;;885.53;;
17197;SDS011;8715;51.010;6.812;2023-07-13T04:19:03;979.00;;;896.13;;
17197;SDS011;8715;51.010;6.812;2023-07-13T04:21:48;973.25;;;889.17;;
17197;SDS011;8715;51.010;6.812;2023-07-13T04:24:34;980.05;;;893.47;;
17197;SDS011;8715;51.010;6.812;2023-07-13T04:27:19;979.78;;;893.00;;
17197;SDS011;8715;51.010;6.812;2023-07-13T04:30:05;985.67;;;896.72;;
17197;SDS011;8715;51.010;6.812;2023-07-13T04:32:50;986.38;;;896.83;;
17197;SDS011;8715;51.010;6.812;2023-07-13T04:35:36;997.33;;;906.92;;
17197;SDS011;8715;51.010;6.812;2023-07-13T04:38:22;992.60;;;900.60;;
17197;SDS011;8715;51.010;6.812;2023-07-13T04:41:09;994.20;;;902.35;;
17197;SDS011;8715;51.010;6.812;2023-07-13T04:43:54;995.67;;;903.03;;
17197;SDS011;8715;51.010;6.812;2023-07-13T04:46:39;997.72;;;904.42;;
17197;SDS011;8715;51.010;6.812;2023-07-13T04:49:24;999.15;;;904.47;;
17197;SDS011;8715;51.010;6.812;2023-07-13T04:52:09;1005.92;;;909.55;;
17197;SDS011;8715;51.010;6.812;2023-07-13T04:54:54;1006.90;;;909.95;;
17197;SDS011;8715;51.010;6.812;2023-07-13T04:57:40;1015.67;;;918.42;;
17197;SDS011;8715;51.010;6.812;2023-07-13T05:00:25;1010.28;;;912.17;;
17197;SDS011;8715;51.010;6.812;2023-07-13T05:03:11;1005.08;;;907.90;;
17197;SDS011;8715;51.010;6.812;2023-07-13T05:05:56;1010.72;;;911.35;;
17197;SDS011;8715;51.010;6.812;2023-07-13T05:08:41;1007.10;;;908.33;;
17197;SDS011;8715;51.010;6.812;2023-07-13T05:11:26;1010.00;;;911.58;;
17197;SDS011;8715;51.010;6.812;2023-07-13T05:14:12;1013.55;;;916.20;;
17197;SDS011;8715;51.010;6.812;2023-07-13T05:16:57;1009.35;;;911.30;;
17197;SDS011;8715;51.010;6.812;2023-07-13T05:19:42;1004.55;;;906.65;;
17197;SDS011;8715;51.010;6.812;2023-07-13T05:22:27;1015.15;;;917.47;;
17197;SDS011;8715;51.010;6.812;2023-07-13T05:25:12;1011.75;;;911.85;;
17197;SDS011;8715;51.010;6.812;2023-07-13T05:27:58;1013.03;;;913.10;;
17197;SDS011;8715;51.010;6.812;2023-07-13T05:30:46;1014.65;;;914.78;;
17197;SDS011;8715;51.010;6.812;2023-07-13T05:33:31;1008.65;;;909.45;;
17197;SDS011;8715;51.010;6.812;2023-07-13T05:36:16;1011.33;;;911.83;;
17197;SDS011;8715;51.010;6.812;2023-07-13T05:39:02;1009.75;;;910.45;;
17197;SDS011;8715;51.010;6.812;2023-07-13T05:41:47;1014.20;;;913.85;;
17197;SDS011;8715;51.010;6.812;2023-07-13T05:44:32;1019.13;;;919.30;;
17197;SDS011;8715;51.010;6.812;2023-07-13T05:47:18;1014.75;;;914.03;;
17197;SDS011;8715;51.010;6.812;2023-07-13T05:50:04;1013.58;;;913.10;;
17197;SDS011;8715;51.010;6.812;2023-07-13T05:52:49;1012.65;;;912.30;;
17197;SDS011;8715;51.010;6.812;2023-07-13T05:55:34;1009.50;;;910.25;;
17197;SDS011;8715;51.010;6.812;2023-07-13T05:58:19;1007.58;;;909.38;;
17197;SDS011;8715;51.010;6.812;2023-07-13T06:01:05;1005.25;;;908.83;;
17197;SDS011;8715;51.010;6.812;2023-07-13T06:03:52;1005.55;;;909.58;;
17197;SDS011;8715;51.010;6.812;2023-07-13T06:06:37;995.83;;;902.33;;
17197;SDS011;8715;51.010;6.812;2023-07-13T06:09:22;995.95;;;902.88;;
17197;SDS011;8715;51.010;6.812;2023-07-13T06:12:07;992.25;;;900.40;;
17197;SDS011;8715;51.010;6.812;2023-07-13T06:14:52;989.85;;;898.50;;
17197;SDS011;8715;51.010;6.812;2023-07-13T06:17:37;992.30;;;900.92;;
17197;SDS011;8715;51.010;6.812;2023-07-13T06:20:23;996.28;;;903.15;;
17197;SDS011;8715;51.010;6.812;2023-07-13T06:23:09;994.03;;;900.65;;
17197;SDS011;8715;51.010;6.812;2023-07-13T06:25:54;1001.80;;;906.42;;
17197;SDS011;8715;51.010;6.812;2023-07-13T06:28:39;998.72;;;903.53;;
17197;SDS011;8715;51.010;6.812;2023-07-13T06:31:24;1010.72;;;916.17;;
17197;SDS011;8715;51.010;6.812;2023-07-13T06:34:09;1001.47;;;906.47;;
17197;SDS011;8715;51.010;6.812;2023-07-13T06:36:55;1008.45;;;913.90;;
17197;SDS011;8715;51.010;6.812;2023-07-13T06:39:40;999.60;;;905.35;;
17197;SDS011;8715;51.010;6.812;2023-07-13T06:42:25;1003.25;;;910.83;;
17197;SDS011;8715;51.010;6.812;2023-07-13T06:45:10;995.85;;;902.80;;
17197;SDS011;8715;51.010;6.812;2023-07-13T06:47:55;1004.40;;;911.33;;
17197;SDS011;8715;51.010;6.812;2023-07-13T06:50:40;999.47;;;905.03;;
17197;SDS011;8715;51.010;6.812;2023-07-13T06:53:27;998.97;;;906.50;;
17197;SDS011;8715;51.010;6.812;2023-07-13T06:56:11;1001.42;;;909.22;;
17197;SDS011;8715;51.010;6.812;2023-07-13T06:58:56;993.10;;;900.35;;
17197;SDS011;8715;51.010;6.812;2023-07-13T07:01:41;997.88;;;904.33;;
17197;SDS011;8715;51.010;6.812;2023-07-13T07:04:26;996.05;;;902.30;;
17197;SDS011;8715;51.010;6.812;2023-07-13T07:07:11;999.33;;;905.65;;
17197;SDS011;8715;51.010;6.812;2023-07-13T07:09:57;996.97;;;902.92;;
17197;SDS011;8715;51.010;6.812;2023-07-13T07:12:42;995.17;;;902.38;;
17197;SDS011;8715;51.010;6.812;2023-07-13T07:15:27;1003.22;;;910.38;;
17197;SDS011;8715;51.010;6.812;2023-07-13T07:18:12;994.75;;;901.92;;
17197;SDS011;8715;51.010;6.812;2023-07-13T07:20:57;999.72;;;905.63;;
17197;SDS011;8715;51.010;6.812;2023-07-13T07:23:43;998.03;;;904.30;;
17197;SDS011;8715;51.010;6.812;2023-07-13T07:26:30;991.65;;;899.67;;
17197;SDS011;8715;51.010;6.812;2023-07-13T07:29:15;992.72;;;900.92;;
17197;SDS011;8715;51.010;6.812;2023-07-13T07:32:00;989.47;;;899.03;;
17197;SDS011;8715;51.010;6.812;2023-07-13T07:34:45;990.30;;;899.17;;
17197;SDS011;8715;51.010;6.812;2023-07-13T07:37:30;988.22;;;897.72;;
17197;SDS011;8715;51.010;6.812;2023-07-13T07:40:15;989.75;;;898.90;;
17197;SDS011;8715;51.010;6.812;2023-07-13T07:43:01;990.10;;;899.97;;
17197;SDS011;8715;51.010;6.812;2023-07-13T07:45:46;985.45;;;896.17;;
17197;SDS011;8715;51.010;6.812;2023-07-13T07:48:31;984.05;;;894.80;;
17197;SDS011;8715;51.010;6.812;2023-07-13T07:51:16;986.88;;;897.83;;
17197;SDS011;8715;51.010;6.812;2023-07-13T07:54:01;990.05;;;902.35;;
17197;SDS011;8715;51.010;6.812;2023-07-13T07:56:46;986.88;;;897.03;;
17197;SDS011;8715;51.010;6.812;2023-07-13T07:59:32;989.80;;;899.45;;
17197;SDS011;8715;51.010;6.812;2023-07-13T08:02:17;991.20;;;900.22;;
17197;SDS011;8715;51.010;6.812;2023-07-13T08:05:02;990.35;;;899.40;;
17197;SDS011;8715;51.010;6.812;2023-07-13T08:07:47;986.47;;;896.78;;
17197;SDS011;8715;51.010;6.812;2023-07-13T08:10:34;986.47;;;896.50;;
17197;SDS011;8715;51.010;6.812;2023-07-13T08:13:19;988.08;;;897.72;;
17197;SDS011;8715;51.010;6.812;2023-07-13T08:16:06;987.88;;;897.47;;
17197;SDS011;8715;51.010;6.812;2023-07-13T08:18:51;986.83;;;897.17;;
17197;SDS011;8715;51.010;6.812;2023-07-13T08:21:36;988.67;;;898.63;;
17197;SDS011;8715;51.010;6.812;2023-07-13T08:24:21;991.55;;;901.03;;
17197;SDS011;8715;51.010;6.812;2023-07-13T08:27:06;988.28;;;897.70;;
17197;SDS011;8715;51.010;6.812;2023-07-13T08:29:51;995.35;;;905.92;;
17197;SDS011;8715;51.010;6.812;2023-07-13T08:32:38;989.05;;;898.65;;
17197;SDS011;8715;51.010;6.812;2023-07-13T08:35:23;998.33;;;907.85;;
17197;SDS011;8715;51.010;6.812;2023-07-13T08:38:09;992.03;;;900.80;;
17197;SDS011;8715;51.010;6.812;2023-07-13T08:40:55;992.08;;;900.67;;
17197;SDS011;8715;51.010;6.812;2023-07-13T08:43:41;989.55;;;898.90;;
17197;SDS011;8715;51.010;6.812;2023-07-13T08:46:28;992.30;;;901.15;;
17197;SDS011;8715;51.010;6.812;2023-07-13T08:49:19;990.90;;;899.80;;
17197;SDS011;8715;51.010;6.812;2023-07-13T08:52:08;993.50;;;901.88;;
17197;SDS011;8715;51.010;6.812;2023-07-13T08:54:56;990.03;;;898.63;;
17197;SDS011;8715;51.010;6.812;2023-07-13T08:57:44;991.60;;;900.05;;
17197;SDS011;8715;51.010;6.812;2023-07-13T09:00:33;990.58;;;898.92;;
17197;SDS011;8715;51.010;6.812;2023-07-13T09:03:20;992.92;;;900.90;;
17197;SDS011;8715;51.010;6.812;2023-07-13T09:06:08;992.03;;;900.35;;
17197;SDS011;8715;51.010;6.812;2023-07-13T09:08:55;988.78;;;898.10;;
17197;SDS011;8715;51.010;6.812;2023-07-13T09:11:45;991.17;;;900.53;;
17197;SDS011;8715;51.010;6.812;2023-07-13T09:14:37;988.78;;;898.13;;
17197;SDS011;8715;51.010;6.812;2023-07-13T09:17:25;991.38;;;899.78;;
17197;SDS011;8715;51.010;6.812;2023-07-13T09:22:58;991.40;;;899.60;;
17197;SDS011;8715;51.010;6.812;2023-07-13T09:25:45;995.33;;;902.58;;
17197;SDS011;8715;51.010;6.812;2023-07-13T09:28:33;993.58;;;900.97;;
17197;SDS011;8715;51.010;6.812;2023-07-13T09:31:20;996.00;;;903.60;;
17197;SDS011;8715;51.010;6.812;2023-07-13T09:34:08;998.70;;;904.45;;
17197;SDS011;8715;51.010;6.812;2023-07-13T09:36:53;996.10;;;902.58;;
17197;SDS011;8715;51.010;6.812;2023-07-13T09:39:40;996.17;;;903.20;;
17197;SDS011;8715;51.010;6.812;2023-07-13T09:42:27;994.78;;;901.28;;
17197;SDS011;8715;51.010;6.812;2023-07-13T09:45:12;997.25;;;903.55;;
17197;SDS011;8715;51.010;6.812;2023-07-13T09:48:04;997.85;;;904.05;;
17197;SDS011;8715;51.010;6.812;2023-07-13T09:50:49;997.33;;;903.00;;
17197;SDS011;8715;51.010;6.812;2023-07-13T09:53:39;1001.75;;;906.83;;
17197;SDS011;8715;51.010;6.812;2023-07-13T09:56:28;1001.63;;;906.88;;
17197;SDS011;8715;51.010;6.812;2023-07-13T09:59:18;1002.42;;;906.58;;
17197;SDS011;8715;51.010;6.812;2023-07-13T10:02:09;999.55;;;904.83;;
17197;SDS011;8715;51.010;6.812;2023-07-13T10:05:13;999.10;;;905.05;;
17197;SDS011;8715;51.010;6.812;2023-07-13T10:07:59;998.80;;;904.40;;
17197;SDS011;8715;51.010;6.812;2023-07-13T10:10:44;1003.08;;;908.50;;
17197;SDS011;8715;51.010;6.812;2023-07-13T10:13:31;1001.88;;;907.28;;
17197;SDS011;8715;51.010;6.812;2023-07-13T10:16:17;1002.53;;;907.85;;
17197;SDS011;8715;51.010;6.812;2023-07-13T10:19:03;998.80;;;904.30;;
17197;SDS011;8715;51.010;6.812;2023-07-13T10:21:50;999.85;;;904.85;;
17197;SDS011;8715;51.010;6.812;2023-07-13T10:24:38;999.45;;;904.33;;
17197;SDS011;8715;51.010;6.812;2023-07-13T10:27:25;997.33;;;902.95;;
17197;SDS011;8715;51.010;6.812;2023-07-13T10:30:14;999.42;;;904.78;;
17197;SDS011;8715;51.010;6.812;2023-07-13T10:33:02;1002.35;;;906.50;;
17197;SDS011;8715;51.010;6.812;2023-07-13T10:35:47;1004.00;;;907.28;;
17197;SDS011;8715;51.010;6.812;2023-07-13T10:38:36;1000.13;;;904.55;;
17197;SDS011;8715;51.010;6.812;2023-07-13T10:41:21;999.92;;;905.42;;
17197;SDS011;8715;51.010;6.812;2023-07-13T10:44:09;999.92;;;905.33;;
17197;SDS011;8715;51.010;6.812;2023-07-13T10:47:01;998.22;;;904.13;;
17197;SDS011;8715;51.010;6.812;2023-07-13T10:49:47;1002.97;;;907.20;;
17197;SDS011;8715;51.010;6.812;2023-07-13T10:52:41;999.97;;;905.13;;
17197;SDS011;8715;51.010;6.812;2023-07-13T10:58:33;1002.65;;;907.58;;
17197;SDS011;8715;51.010;6.812;2023-07-13T11:01:19;996.63;;;902.85;;
17197;SDS011;8715;51.010;6.812;2023-07-13T11:04:05;995.22;;;901.70;;
17197;SDS011;8715;51.010;6.812;2023-07-13T11:06:56;996.67;;;902.88;;
17197;SDS011;8715;51.010;6.812;2023-07-13T11:09:41;996.10;;;902.40;;
17197;SDS011;8715;51.010;6.812;2023-07-13T11:12:50;998.08;;;904.42;;
17197;SDS011;8715;51.010;6.812;2023-07-13T11:15:43;1001.47;;;906.47;;
17197;SDS011;8715;51.010;6.812;2023-07-13T11:18:29;1000.42;;;905.60;;
17197;SDS011;8715;51.010;6.812;2023-07-13T11:21:16;1002.35;;;907.47;;
17197;SDS011;8715;51.010;6.812;2023-07-13T11:24:02;1001.83;;;906.25;;
17197;SDS011;8715;51.010;6.812;2023-07-13T11:26:50;1002.35;;;906.60;;
17197;SDS011;8715;51.010;6.812;2023-07-13T11:32:24;1001.20;;;905.90;;
17197;SDS011;8715;51.010;6.812;2023-07-13T11:35:12;999.67;;;904.90;;
17197;SDS011;8715;51.010;6.812;2023-07-13T11:38:00;1010.50;;;915.75;;
17197;SDS011;8715;51.010;6.812;2023-07-13T11:40:50;1002.28;;;907.05;;
17197;SDS011;8715;51.010;6.812;2023-07-13T11:43:37;1001.35;;;906.28;;
17197;SDS011;8715;51.010;6.812;2023-07-13T11:46:24;1003.00;;;907.13;;
17197;SDS011;8715;51.010;6.812;2023-07-13T11:49:15;1002.33;;;906.33;;
17197;SDS011;8715;51.010;6.812;2023-07-13T11:52:00;1009.10;;;911.83;;
17197;SDS011;8715;51.010;6.812;2023-07-13T11:54:48;1002.08;;;906.58;;
17197;SDS011;8715;51.010;6.812;2023-07-13T11:57:37;1000.85;;;905.33;;
17197;SDS011;8715;51.010;6.812;2023-07-13T12:00:28;1000.85;;;905.17;;
17197;SDS011;8715;51.010;6.812;2023-07-13T12:03:15;1002.85;;;906.00;;
17197;SDS011;8715;51.010;6.812;2023-07-13T12:06:03;1007.22;;;909.78;;
17197;SDS011;8715;51.010;6.812;2023-07-13T12:08:49;1007.00;;;909.38;;
17197;SDS011;8715;51.010;6.812;2023-07-13T12:11:37;1007.03;;;909.85;;
17197;SDS011;8715;51.010;6.812;2023-07-13T12:14:22;1006.53;;;908.60;;
17197;SDS011;8715;51.010;6.812;2023-07-13T12:17:09;1008.80;;;911.08;;
17197;SDS011;8715;51.010;6.812;2023-07-13T12:19:56;1006.03;;;908.35;;
17197;SDS011;8715;51.010;6.812;2023-07-13T12:22:44;1010.92;;;912.60;;
17197;SDS011;8715;51.010;6.812;2023-07-13T12:25:31;1008.90;;;910.65;;
17197;SDS011;8715;51.010;6.812;2023-07-13T12:28:21;1007.63;;;909.70;;
17197;SDS011;8715;51.010;6.812;2023-07-13T12:31:07;1007.40;;;909.45;;
17197;SDS011;8715;51.010;6.812;2023-07-13T12:33:59;1007.10;;;909.03;;
17197;SDS011;8715;51.010;6.812;2023-07-13T12:36:46;1009.05;;;910.58;;
17197;SDS011;8715;51.010;6.812;2023-07-13T12:39:32;1006.53;;;908.63;;
17197;SDS011;8715;51.010;6.812;2023-07-13T12:42:19;1007.15;;;909.60;;
17197;SDS011;8715;51.010;6.812;2023-07-13T12:45:15;1006.47;;;909.38;;
17197;SDS011;8715;51.010;6.812;2023-07-13T12:48:04;1005.83;;;908.42;;
17197;SDS011;8715;51.010;6.812;2023-07-13T12:50:53;1008.63;;;910.28;;
17197;SDS011;8715;51.010;6.812;2023-07-13T12:53:40;1009.53;;;911.17;;
17197;SDS011;8715;51.010;6.812;2023-07-13T12:56:26;1010.35;;;910.67;;
17197;SDS011;8715;51.010;6.812;2023-07-13T12:59:16;1012.92;;;913.58;;
17197;SDS011;8715;51.010;6.812;2023-07-13T13:02:05;1013.50;;;913.80;;
17197;SDS011;8715;51.010;6.812;2023-07-13T13:05:02;1013.60;;;913.72;;
17197;SDS011;8715;51.010;6.812;2023-07-13T13:07:48;1013.83;;;913.63;;
17197;SDS011;8715;51.010;6.812;2023-07-13T13:10:33;1013.70;;;913.35;;
17197;SDS011;8715;51.010;6.812;2023-07-13T13:13:19;1015.38;;;915.05;;
17197;SDS011;8715;51.010;6.812;2023-07-13T13:16:04;1011.08;;;911.15;;
17197;SDS011;8715;51.010;6.812;2023-07-13T13:18:55;1011.85;;;912.15;;
17197;SDS011;8715;51.010;6.812;2023-07-13T13:21:42;1012.17;;;913.03;;
17197;SDS011;8715;51.010;6.812;2023-07-13T13:24:27;1011.88;;;912.53;;
17197;SDS011;8715;51.010;6.812;2023-07-13T13:27:14;1014.17;;;914.28;;
17197;SDS011;8715;51.010;6.812;2023-07-13T13:30:00;1010.58;;;911.22;;
17197;SDS011;8715;51.010;6.812;2023-07-13T13:32:46;1009.08;;;910.22;;
17197;SDS011;8715;51.010;6.812;2023-07-13T13:35:33;1017.05;;;918.60;;
17197;SDS011;8715;51.010;6.812;2023-07-13T13:38:19;1008.63;;;909.10;;
17197;SDS011;8715;51.010;6.812;2023-07-13T13:41:05;1012.35;;;912.35;;
17197;SDS011;8715;51.010;6.812;2023-07-13T13:43:50;1012.17;;;912.92;;
17197;SDS011;8715;51.010;6.812;2023-07-13T13:46:35;1013.78;;;914.45;;
17197;SDS011;8715;51.010;6.812;2023-07-13T13:49:21;1010.80;;;911.13;;
17197;SDS011;8715;51.010;6.812;2023-07-13T13:52:08;1014.33;;;914.80;;
17197;SDS011;8715;51.010;6.812;2023-07-13T13:54:54;1009.55;;;910.78;;
17197;SDS011;8715;51.010;6.812;2023-07-13T13:57:39;1008.42;;;910.45;;
17197;SDS011;8715;51.010;6.812;2023-07-13T14:00:24;1007.15;;;908.78;;
17197;SDS011;8715;51.010;6.812;2023-07-13T14:03:13;1010.78;;;912.25;;
17197;SDS011;8715;51.010;6.812;2023-07-13T14:05:58;1012.78;;;913.47;;
17197;SDS011;8715;51.010;6.812;2023-07-13T14:08:45;1014.92;;;914.95;;
17197;SDS011;8715;51.010;6.812;2023-07-13T14:11:30;1012.45;;;912.25;;
17197;SDS011;8715;51.010;6.812;2023-07-13T14:14:17;1013.13;;;912.90;;
17197;SDS011;8715;51.010;6.812;2023-07-13T14:17:02;1011.40;;;911.75;;
17197;SDS011;8715;51.010;6.812;2023-07-13T14:19:48;1010.88;;;910.88;;
17197;SDS011;8715;51.010;6.812;2023-07-13T14:22:34;1011.47;;;912.30;;
17197;SDS011;8715;51.010;6.812;2023-07-13T14:25:21;1017.83;;;919.03;;
17197;SDS011;8715;51.010;6.812;2023-07-13T14:28:10;1012.10;;;912.33;;
17197;SDS011;8715;51.010;6.812;2023-07-13T14:30:59;1013.88;;;914.47;;
17197;SDS011;8715;51.010;6.812;2023-07-13T14:33:44;1009.88;;;911.10;;
17197;SDS011;8715;51.010;6.812;2023-07-13T14:36:30;1011.88;;;912.75;;
17197;SDS011;8715;51.010;6.812;2023-07-13T14:39:16;1012.00;;;912.47;;
17197;SDS011;8715;51.010;6.812;2023-07-13T14:42:03;1011.35;;;911.80;;
17197;SDS011;8715;51.010;6.812;2023-07-13T14:44:48;1009.30;;;910.30;;
17197;SDS011;8715;51.010;6.812;2023-07-13T14:47:33;1010.97;;;911.85;;
17197;SDS011;8715;51.010;6.812;2023-07-13T14:50:20;1011.22;;;911.75;;
17197;SDS011;8715;51.010;6.812;2023-07-13T14:53:07;1010.65;;;911.47;;
17197;SDS011;8715;51.010;6.812;2023-07-13T14:55:54;1009.75;;;910.90;;
17197;SDS011;8715;51.010;6.812;2023-07-13T14:58:40;1009.22;;;909.88;;
17197;SDS011;8715;51.010;6.812;2023-07-13T15:01:25;1010.75;;;911.75;;
17197;SDS011;8715;51.010;6.812;2023-07-13T15:04:11;1009.70;;;910.72;;
17197;SDS011;8715;51.010;6.812;2023-07-13T15:06:56;1006.42;;;907.83;;
17197;SDS011;8715;51.010;6.812;2023-07-13T15:09:42;1011.58;;;912.92;;
17197;SDS011;8715;51.010;6.812;2023-07-13T15:12:27;1008.00;;;909.80;;
17197;SDS011;8715;51.010;6.812;2023-07-13T15:15:14;1014.67;;;917.05;;
17197;SDS011;8715;51.010;6.812;2023-07-13T15:17:59;1007.55;;;909.40;;
17197;SDS011;8715;51.010;6.812;2023-07-13T15:20:45;1013.15;;;916.50;;
17197;SDS011;8715;51.010;6.812;2023-07-13T15:23:30;1005.28;;;908.08;;
17197;SDS011;8715;51.010;6.812;2023-07-13T15:26:15;1004.60;;;908.00;;
17197;SDS011;8715;51.010;6.812;2023-07-13T15:29:01;998.90;;;903.58;;
17197;SDS011;8715;51.010;6.812;2023-07-13T15:31:48;1001.75;;;905.92;;
17197;SDS011;8715;51.010;6.812;2023-07-13T15:34:33;1000.55;;;905.58;;
17197;SDS011;8715;51.010;6.812;2023-07-13T15:37:17;998.72;;;904.03;;
17197;SDS011;8715;51.010;6.812;2023-07-13T15:40:04;997.55;;;903.13;;
17197;SDS011;8715;51.010;6.812;2023-07-13T15:42:51;998.58;;;904.05;;
17197;SDS011;8715;51.010;6.812;2023-07-13T15:45:36;1003.13;;;909.80;;
17197;SDS011;8715;51.010;6.812;2023-07-13T15:48:23;995.22;;;902.33;;
17197;SDS011;8715;51.010;6.812;2023-07-13T15:51:11;991.40;;;899.83;;
17197;SDS011;8715;51.010;6.812;2023-07-13T15:53:58;985.17;;;894.88;;
17197;SDS011;8715;51.010;6.812;2023-07-13T15:56:54;987.63;;;896.88;;
17197;SDS011;8715;51.010;6.812;2023-07-13T15:59:40;985.90;;;896.35;;
17197;SDS011;8715;51.010;6.812;2023-07-13T16:02:25;984.63;;;894.95;;
17197;SDS011;8715;51.010;6.812;2023-07-13T16:05:12;983.47;;;894.45;;